sensor_id;sensor_type;location;lat;lon;timestamp;P1;durP1;ratioP1;P2;durP2;ratioP2
28762;SDS011;15918;51.270;6.522;2022-09-09T00:01:54;1.45;;;0.65;;
28762;SDS011;15918;51.270;6.522;2022-09-09T00:06:59;0.60;;;0.60;;
28762;SDS011;15918;51.270;6.522;2022-09-09T00:09:47;0.90;;;0.70;;
28762;SDS011;15918;51.270;6.522;2022-09-09T00:12:36;4.15;;;0.80;;
28762;SDS011;15918;51.270;6.522;2022-09-09T00:20:43;2.17;;;0.80;;
28762;SDS011;15918;51.270;6.522;2022-09-09T00:23:28;1.27;;;0.57;;
28762;SDS011;15918;51.270;6.522;2022-09-09T00:26:10;5.07;;;1.10;;
28762;SDS011;15918;51.270;6.522;2022-09-09T00:31:35;1.48;;;0.70;;
28762;SDS011;15918;51.270;6.522;2022-09-09T00:36:43;2.78;;;0.80;;
28762;SDS011;15918;51.270;6.522;2022-09-09T00:39:18;2.60;;;0.93;;
28762;SDS011;15918;51.270;6.522;2022-09-09T00:44:51;1.92;;;0.80;;
28762;SDS011;15918;51.270;6.522;2022-09-09T00:50:03;3.38;;;1.30;;
28762;SDS011;15918;51.270;6.522;2022-09-09T00:53:01;1.35;;;1.15;;
28762;SDS011;15918;51.270;6.522;2022-09-09T00:56:06;2.42;;;1.20;;
28762;SDS011;15918;51.270;6.522;2022-09-09T00:58:47;3.70;;;1.33;;
28762;SDS011;15918;51.270;6.522;2022-09-09T01:01:29;2.63;;;1.17;;
28762;SDS011;15918;51.270;6.522;2022-09-09T01:03:55;2.00;;;1.13;;
28762;SDS011;15918;51.270;6.522;2022-09-09T01:06:34;1.48;;;1.02;;
28762;SDS011;15918;51.270;6.522;2022-09-09T01:09:11;2.10;;;0.93;;
28762;SDS011;15918;51.270;6.522;2022-09-09T01:14:37;2.83;;;1.48;;
28762;SDS011;15918;51.270;6.522;2022-09-09T01:22:13;1.73;;;1.05;;
28762;SDS011;15918;51.270;6.522;2022-09-09T01:27:21;2.22;;;1.13;;
28762;SDS011;15918;51.270;6.522;2022-09-09T01:29:48;0.98;;;0.82;;
28762;SDS011;15918;51.270;6.522;2022-09-09T01:35:07;3.90;;;1.23;;
28762;SDS011;15918;51.270;6.522;2022-09-09T01:37:39;1.60;;;1.00;;
28762;SDS011;15918;51.270;6.522;2022-09-09T01:40:05;2.30;;;1.30;;
28762;SDS011;15918;51.270;6.522;2022-09-09T01:42:31;1.90;;;1.20;;
28762;SDS011;15918;51.270;6.522;2022-09-09T01:44:57;4.22;;;1.63;;
28762;SDS011;15918;51.270;6.522;2022-09-09T01:47:22;1.90;;;1.25;;
28762;SDS011;15918;51.270;6.522;2022-09-09T01:49:48;2.10;;;1.10;;
28762;SDS011;15918;51.270;6.522;2022-09-09T01:52:13;2.05;;;1.00;;
28762;SDS011;15918;51.270;6.522;2022-09-09T01:54:39;3.75;;;1.17;;
28762;SDS011;15918;51.270;6.522;2022-09-09T01:57:11;3.15;;;1.27;;
28762;SDS011;15918;51.270;6.522;2022-09-09T01:59:48;2.22;;;1.00;;
28762;SDS011;15918;51.270;6.522;2022-09-09T02:04:59;2.88;;;1.20;;
28762;SDS011;15918;51.270;6.522;2022-09-09T02:07:30;3.95;;;1.10;;
28762;SDS011;15918;51.270;6.522;2022-09-09T02:10:50;2.45;;;1.25;;
28762;SDS011;15918;51.270;6.522;2022-09-09T02:13:03;3.15;;;1.27;;
28762;SDS011;15918;51.270;6.522;2022-09-09T02:15:35;3.15;;;1.10;;
28762;SDS011;15918;51.270;6.522;2022-09-09T02:18:12;3.00;;;1.38;;
28762;SDS011;15918;51.270;6.522;2022-09-09T02:20:43;2.65;;;1.05;;
28762;SDS011;15918;51.270;6.522;2022-09-09T02:23:10;3.58;;;1.25;;
28762;SDS011;15918;51.270;6.522;2022-09-09T02:25:37;2.00;;;1.17;;
28762;SDS011;15918;51.270;6.522;2022-09-09T02:28:06;4.60;;;1.40;;
28762;SDS011;15918;51.270;6.522;2022-09-09T02:30:34;4.20;;;1.30;;
28762;SDS011;15918;51.270;6.522;2022-09-09T02:33:01;3.08;;;1.10;;
28762;SDS011;15918;51.270;6.522;2022-09-09T02:35:30;4.60;;;1.05;;
28762;SDS011;15918;51.270;6.522;2022-09-09T02:37:59;4.30;;;1.55;;
28762;SDS011;15918;51.270;6.522;2022-09-09T02:40:28;5.05;;;1.42;;
28762;SDS011;15918;51.270;6.522;2022-09-09T02:42:54;2.95;;;1.17;;
28762;SDS011;15918;51.270;6.522;2022-09-09T02:45:21;5.20;;;1.50;;
28762;SDS011;15918;51.270;6.522;2022-09-09T02:54:00;3.28;;;1.20;;
28762;SDS011;15918;51.270;6.522;2022-09-09T02:56:25;5.28;;;2.05;;
28762;SDS011;15918;51.270;6.522;2022-09-09T02:58:54;7.88;;;1.40;;
28762;SDS011;15918;51.270;6.522;2022-09-09T03:01:20;4.85;;;1.50;;
28762;SDS011;15918;51.270;6.522;2022-09-09T03:03:46;5.57;;;1.35;;
28762;SDS011;15918;51.270;6.522;2022-09-09T03:06:11;6.90;;;1.48;;
28762;SDS011;15918;51.270;6.522;2022-09-09T03:08:37;1.85;;;1.13;;
28762;SDS011;15918;51.270;6.522;2022-09-09T03:11:03;8.68;;;1.70;;
28762;SDS011;15918;51.270;6.522;2022-09-09T03:13:29;5.95;;;1.30;;
28762;SDS011;15918;51.270;6.522;2022-09-09T03:15:55;3.60;;;1.52;;
28762;SDS011;15918;51.270;6.522;2022-09-09T03:18:20;8.05;;;1.30;;
28762;SDS011;15918;51.270;6.522;2022-09-09T03:20:46;3.55;;;1.10;;
28762;SDS011;15918;51.270;6.522;2022-09-09T03:23:16;2.95;;;1.27;;
28762;SDS011;15918;51.270;6.522;2022-09-09T03:25:50;3.42;;;1.50;;
28762;SDS011;15918;51.270;6.522;2022-09-09T03:28:17;8.70;;;1.83;;
28762;SDS011;15918;51.270;6.522;2022-09-09T03:30:43;4.25;;;1.92;;
28762;SDS011;15918;51.270;6.522;2022-09-09T03:33:09;4.70;;;1.20;;
28762;SDS011;15918;51.270;6.522;2022-09-09T03:35:34;3.67;;;1.30;;
28762;SDS011;15918;51.270;6.522;2022-09-09T03:38:00;5.43;;;1.60;;
28762;SDS011;15918;51.270;6.522;2022-09-09T03:40:26;3.03;;;1.25;;
28762;SDS011;15918;51.270;6.522;2022-09-09T03:42:52;5.30;;;1.60;;
28762;SDS011;15918;51.270;6.522;2022-09-09T03:45:17;7.80;;;1.85;;
28762;SDS011;15918;51.270;6.522;2022-09-09T03:47:43;4.00;;;1.55;;
28762;SDS011;15918;51.270;6.522;2022-09-09T03:50:09;4.28;;;1.60;;
28762;SDS011;15918;51.270;6.522;2022-09-09T03:52:39;4.55;;;1.20;;
28762;SDS011;15918;51.270;6.522;2022-09-09T03:55:06;6.18;;;2.03;;
28762;SDS011;15918;51.270;6.522;2022-09-09T03:57:33;5.10;;;1.35;;
28762;SDS011;15918;51.270;6.522;2022-09-09T04:00:04;4.28;;;1.48;;
28762;SDS011;15918;51.270;6.522;2022-09-09T04:02:32;6.05;;;1.45;;
28762;SDS011;15918;51.270;6.522;2022-09-09T04:04:57;3.85;;;1.70;;
28762;SDS011;15918;51.270;6.522;2022-09-09T04:07:24;4.68;;;1.42;;
28762;SDS011;15918;51.270;6.522;2022-09-09T04:09:52;6.93;;;1.50;;
28762;SDS011;15918;51.270;6.522;2022-09-09T04:12:18;5.30;;;1.50;;
28762;SDS011;15918;51.270;6.522;2022-09-09T04:14:43;4.80;;;1.52;;
28762;SDS011;15918;51.270;6.522;2022-09-09T04:17:09;5.07;;;1.60;;
28762;SDS011;15918;51.270;6.522;2022-09-09T04:19:35;8.00;;;1.80;;
28762;SDS011;15918;51.270;6.522;2022-09-09T04:22:00;4.68;;;1.80;;
28762;SDS011;15918;51.270;6.522;2022-09-09T04:24:26;5.90;;;1.95;;
28762;SDS011;15918;51.270;6.522;2022-09-09T04:26:52;6.80;;;2.38;;
28762;SDS011;15918;51.270;6.522;2022-09-09T04:29:18;6.32;;;1.77;;
28762;SDS011;15918;51.270;6.522;2022-09-09T04:31:43;3.80;;;1.70;;
28762;SDS011;15918;51.270;6.522;2022-09-09T04:34:09;5.53;;;2.20;;
28762;SDS011;15918;51.270;6.522;2022-09-09T04:36:35;5.72;;;2.05;;
28762;SDS011;15918;51.270;6.522;2022-09-09T04:39:01;4.57;;;1.60;;
28762;SDS011;15918;51.270;6.522;2022-09-09T04:41:27;5.35;;;1.90;;
28762;SDS011;15918;51.270;6.522;2022-09-09T04:43:53;6.65;;;1.90;;
28762;SDS011;15918;51.270;6.522;2022-09-09T04:46:20;6.90;;;1.67;;
28762;SDS011;15918;51.270;6.522;2022-09-09T04:48:47;3.35;;;1.45;;
28762;SDS011;15918;51.270;6.522;2022-09-09T04:51:14;4.32;;;1.45;;
28762;SDS011;15918;51.270;6.522;2022-09-09T04:53:40;6.25;;;1.35;;
28762;SDS011;15918;51.270;6.522;2022-09-09T04:58:35;6.90;;;2.15;;
28762;SDS011;15918;51.270;6.522;2022-09-09T05:01:12;6.63;;;2.00;;
28762;SDS011;15918;51.270;6.522;2022-09-09T05:03:40;7.22;;;1.73;;
28762;SDS011;15918;51.270;6.522;2022-09-09T05:06:16;4.40;;;1.88;;
28762;SDS011;15918;51.270;6.522;2022-09-09T05:08:43;6.05;;;2.00;;
28762;SDS011;15918;51.270;6.522;2022-09-09T05:11:16;6.22;;;1.60;;
28762;SDS011;15918;51.270;6.522;2022-09-09T05:13:48;4.60;;;1.95;;
28762;SDS011;15918;51.270;6.522;2022-09-09T05:16:15;4.38;;;1.73;;
28762;SDS011;15918;51.270;6.522;2022-09-09T05:18:41;8.63;;;2.25;;
28762;SDS011;15918;51.270;6.522;2022-09-09T05:21:08;8.18;;;2.17;;
28762;SDS011;15918;51.270;6.522;2022-09-09T05:23:34;5.70;;;2.00;;
28762;SDS011;15918;51.270;6.522;2022-09-09T05:26:01;6.45;;;1.90;;
28762;SDS011;15918;51.270;6.522;2022-09-09T05:28:27;5.65;;;1.77;;
28762;SDS011;15918;51.270;6.522;2022-09-09T05:30:56;6.03;;;1.83;;
28762;SDS011;15918;51.270;6.522;2022-09-09T05:33:29;5.65;;;2.05;;
28762;SDS011;15918;51.270;6.522;2022-09-09T05:35:58;7.07;;;2.10;;
28762;SDS011;15918;51.270;6.522;2022-09-09T05:38:25;6.70;;;2.13;;
28762;SDS011;15918;51.270;6.522;2022-09-09T05:40:51;9.45;;;2.42;;
28762;SDS011;15918;51.270;6.522;2022-09-09T05:43:20;5.25;;;1.95;;
28762;SDS011;15918;51.270;6.522;2022-09-09T05:45:46;7.03;;;2.33;;
28762;SDS011;15918;51.270;6.522;2022-09-09T05:48:12;6.07;;;1.92;;
28762;SDS011;15918;51.270;6.522;2022-09-09T05:50:40;5.80;;;2.15;;
28762;SDS011;15918;51.270;6.522;2022-09-09T05:53:05;7.65;;;2.03;;
28762;SDS011;15918;51.270;6.522;2022-09-09T05:55:31;8.85;;;1.98;;
28762;SDS011;15918;51.270;6.522;2022-09-09T05:57:57;6.95;;;2.30;;
28762;SDS011;15918;51.270;6.522;2022-09-09T06:00:22;10.02;;;2.40;;
28762;SDS011;15918;51.270;6.522;2022-09-09T06:02:51;7.70;;;2.42;;
28762;SDS011;15918;51.270;6.522;2022-09-09T06:05:18;5.30;;;1.98;;
28762;SDS011;15918;51.270;6.522;2022-09-09T06:07:44;7.55;;;2.05;;
28762;SDS011;15918;51.270;6.522;2022-09-09T06:10:10;5.93;;;1.83;;
28762;SDS011;15918;51.270;6.522;2022-09-09T06:12:38;9.85;;;2.55;;
28762;SDS011;15918;51.270;6.522;2022-09-09T06:15:04;5.15;;;1.90;;
28762;SDS011;15918;51.270;6.522;2022-09-09T06:17:30;7.20;;;2.47;;
28762;SDS011;15918;51.270;6.522;2022-09-09T06:19:56;11.02;;;2.15;;
28762;SDS011;15918;51.270;6.522;2022-09-09T06:22:22;7.50;;;2.05;;
28762;SDS011;15918;51.270;6.522;2022-09-09T06:24:47;8.73;;;2.40;;
28762;SDS011;15918;51.270;6.522;2022-09-09T06:27:13;6.78;;;2.30;;
28762;SDS011;15918;51.270;6.522;2022-09-09T06:29:38;7.50;;;2.13;;
28762;SDS011;15918;51.270;6.522;2022-09-09T06:32:04;10.15;;;2.55;;
28762;SDS011;15918;51.270;6.522;2022-09-09T06:34:30;9.10;;;2.67;;
28762;SDS011;15918;51.270;6.522;2022-09-09T06:36:55;8.32;;;2.15;;
28762;SDS011;15918;51.270;6.522;2022-09-09T06:39:22;7.72;;;1.80;;
28762;SDS011;15918;51.270;6.522;2022-09-09T06:41:48;6.25;;;2.08;;
28762;SDS011;15918;51.270;6.522;2022-09-09T06:44:14;5.35;;;1.92;;
28762;SDS011;15918;51.270;6.522;2022-09-09T06:46:40;8.15;;;1.88;;
28762;SDS011;15918;51.270;6.522;2022-09-09T06:49:07;6.63;;;2.08;;
28762;SDS011;15918;51.270;6.522;2022-09-09T06:51:34;6.43;;;1.77;;
28762;SDS011;15918;51.270;6.522;2022-09-09T06:54:02;7.28;;;2.13;;
28762;SDS011;15918;51.270;6.522;2022-09-09T06:56:30;5.57;;;2.17;;
28762;SDS011;15918;51.270;6.522;2022-09-09T06:59:06;6.65;;;2.00;;
28762;SDS011;15918;51.270;6.522;2022-09-09T07:01:38;6.70;;;1.92;;
28762;SDS011;15918;51.270;6.522;2022-09-09T07:04:14;7.00;;;2.22;;
28762;SDS011;15918;51.270;6.522;2022-09-09T07:06:40;6.25;;;1.85;;
28762;SDS011;15918;51.270;6.522;2022-09-09T07:09:09;4.47;;;2.33;;
28762;SDS011;15918;51.270;6.522;2022-09-09T07:11:40;6.68;;;2.03;;
28762;SDS011;15918;51.270;6.522;2022-09-09T07:14:24;4.78;;;1.58;;
28762;SDS011;15918;51.270;6.522;2022-09-09T07:16:50;7.68;;;1.80;;
28762;SDS011;15918;51.270;6.522;2022-09-09T07:19:16;5.88;;;1.85;;
28762;SDS011;15918;51.270;6.522;2022-09-09T07:21:41;7.72;;;2.65;;
28762;SDS011;15918;51.270;6.522;2022-09-09T07:24:07;6.57;;;2.08;;
28762;SDS011;15918;51.270;6.522;2022-09-09T07:26:35;8.23;;;2.53;;
28762;SDS011;15918;51.270;6.522;2022-09-09T07:29:02;6.13;;;2.10;;
28762;SDS011;15918;51.270;6.522;2022-09-09T07:31:29;6.93;;;2.00;;
28762;SDS011;15918;51.270;6.522;2022-09-09T07:33:56;8.93;;;2.10;;
28762;SDS011;15918;51.270;6.522;2022-09-09T07:36:23;5.65;;;2.13;;
28762;SDS011;15918;51.270;6.522;2022-09-09T07:38:52;7.25;;;1.80;;
28762;SDS011;15918;51.270;6.522;2022-09-09T07:44:43;6.80;;;1.95;;
28762;SDS011;15918;51.270;6.522;2022-09-09T07:46:51;4.40;;;1.70;;
28762;SDS011;15918;51.270;6.522;2022-09-09T07:49:17;7.57;;;1.92;;
28762;SDS011;15918;51.270;6.522;2022-09-09T07:51:44;10.50;;;1.88;;
28762;SDS011;15918;51.270;6.522;2022-09-09T07:54:12;9.15;;;1.90;;
28762;SDS011;15918;51.270;6.522;2022-09-09T07:56:40;10.88;;;2.78;;
28762;SDS011;15918;51.270;6.522;2022-09-09T07:59:06;8.55;;;2.55;;
28762;SDS011;15918;51.270;6.522;2022-09-09T08:01:36;7.22;;;2.05;;
28762;SDS011;15918;51.270;6.522;2022-09-09T08:04:07;5.53;;;2.03;;
28762;SDS011;15918;51.270;6.522;2022-09-09T08:06:42;7.55;;;2.20;;
28762;SDS011;15918;51.270;6.522;2022-09-09T08:09:11;4.45;;;1.80;;
28762;SDS011;15918;51.270;6.522;2022-09-09T08:11:37;6.70;;;1.95;;
28762;SDS011;15918;51.270;6.522;2022-09-09T08:14:04;5.25;;;1.73;;
28762;SDS011;15918;51.270;6.522;2022-09-09T08:16:33;8.20;;;2.40;;
28762;SDS011;15918;51.270;6.522;2022-09-09T08:19:01;7.18;;;2.50;;
28762;SDS011;15918;51.270;6.522;2022-09-09T08:21:29;10.73;;;1.95;;
28762;SDS011;15918;51.270;6.522;2022-09-09T08:23:56;7.22;;;1.95;;
28762;SDS011;15918;51.270;6.522;2022-09-09T08:26:27;39.33;;;4.70;;
28762;SDS011;15918;51.270;6.522;2022-09-09T08:28:55;27.25;;;2.50;;
28762;SDS011;15918;51.270;6.522;2022-09-09T08:31:23;11.68;;;2.42;;
28762;SDS011;15918;51.270;6.522;2022-09-09T08:33:50;11.32;;;2.33;;
28762;SDS011;15918;51.270;6.522;2022-09-09T08:36:17;14.23;;;2.58;;
28762;SDS011;15918;51.270;6.522;2022-09-09T08:38:48;9.80;;;2.47;;
28762;SDS011;15918;51.270;6.522;2022-09-09T08:44:23;5.93;;;1.88;;
28762;SDS011;15918;51.270;6.522;2022-09-09T08:52:47;9.13;;;2.40;;
28762;SDS011;15918;51.270;6.522;2022-09-09T08:57:47;7.03;;;2.47;;
28762;SDS011;15918;51.270;6.522;2022-09-09T09:00:17;10.50;;;2.08;;
28762;SDS011;15918;51.270;6.522;2022-09-09T09:02:48;6.75;;;2.10;;
28762;SDS011;15918;51.270;6.522;2022-09-09T09:05:51;7.85;;;2.05;;
28762;SDS011;15918;51.270;6.522;2022-09-09T09:08:43;6.57;;;2.25;;
28762;SDS011;15918;51.270;6.522;2022-09-09T09:11:16;5.80;;;2.08;;
28762;SDS011;15918;51.270;6.522;2022-09-09T09:16:30;6.90;;;1.83;;
28762;SDS011;15918;51.270;6.522;2022-09-09T09:19:01;8.38;;;2.10;;
28762;SDS011;15918;51.270;6.522;2022-09-09T09:21:40;6.32;;;1.75;;
28762;SDS011;15918;51.270;6.522;2022-09-09T09:24:19;5.80;;;1.75;;
28762;SDS011;15918;51.270;6.522;2022-09-09T09:26:48;8.55;;;2.20;;
28762;SDS011;15918;51.270;6.522;2022-09-09T09:29:15;7.10;;;1.85;;
28762;SDS011;15918;51.270;6.522;2022-09-09T09:31:44;3.53;;;1.52;;
28762;SDS011;15918;51.270;6.522;2022-09-09T09:34:14;5.22;;;1.35;;
28762;SDS011;15918;51.270;6.522;2022-09-09T09:36:41;6.70;;;1.83;;
28762;SDS011;15918;51.270;6.522;2022-09-09T09:39:21;3.97;;;1.55;;
28762;SDS011;15918;51.270;6.522;2022-09-09T09:41:52;4.38;;;1.70;;
28762;SDS011;15918;51.270;6.522;2022-09-09T09:44:22;4.55;;;1.92;;
28762;SDS011;15918;51.270;6.522;2022-09-09T09:46:48;5.30;;;1.65;;
28762;SDS011;15918;51.270;6.522;2022-09-09T09:49:14;6.45;;;1.60;;
28762;SDS011;15918;51.270;6.522;2022-09-09T09:51:39;7.95;;;1.40;;
28762;SDS011;15918;51.270;6.522;2022-09-09T09:56:54;7.13;;;2.00;;
28762;SDS011;15918;51.270;6.522;2022-09-09T09:59:33;4.70;;;1.85;;
28762;SDS011;15918;51.270;6.522;2022-09-09T10:04:39;7.03;;;1.92;;
28762;SDS011;15918;51.270;6.522;2022-09-09T10:07:13;7.70;;;1.70;;
28762;SDS011;15918;51.270;6.522;2022-09-09T10:09:48;5.55;;;1.80;;
28762;SDS011;15918;51.270;6.522;2022-09-09T10:17:41;5.78;;;1.40;;
28762;SDS011;15918;51.270;6.522;2022-09-09T10:22:35;5.70;;;1.67;;
28762;SDS011;15918;51.270;6.522;2022-09-09T10:30:22;7.90;;;2.08;;
28762;SDS011;15918;51.270;6.522;2022-09-09T10:35:46;3.27;;;1.43;;
28762;SDS011;15918;51.270;6.522;2022-09-09T10:38:47;5.80;;;1.40;;
28762;SDS011;15918;51.270;6.522;2022-09-09T10:41:20;3.58;;;1.42;;
28762;SDS011;15918;51.270;6.522;2022-09-09T10:49:48;3.33;;;1.35;;
28762;SDS011;15918;51.270;6.522;2022-09-09T10:57:51;8.88;;;1.80;;
28762;SDS011;15918;51.270;6.522;2022-09-09T11:03:05;4.60;;;1.70;;
28762;SDS011;15918;51.270;6.522;2022-09-09T11:08:10;2.55;;;1.20;;
28762;SDS011;15918;51.270;6.522;2022-09-09T11:11:00;3.72;;;1.48;;
28762;SDS011;15918;51.270;6.522;2022-09-09T11:16:22;8.10;;;2.05;;
28762;SDS011;15918;51.270;6.522;2022-09-09T11:18:50;6.53;;;2.10;;
28762;SDS011;15918;51.270;6.522;2022-09-09T11:21:28;6.63;;;1.58;;
28762;SDS011;15918;51.270;6.522;2022-09-09T11:24:01;2.13;;;1.17;;
28762;SDS011;15918;51.270;6.522;2022-09-09T11:26:38;4.68;;;1.38;;
28762;SDS011;15918;51.270;6.522;2022-09-09T11:33:04;4.45;;;1.35;;
28762;SDS011;15918;51.270;6.522;2022-09-09T11:38:32;4.60;;;0.95;;
28762;SDS011;15918;51.270;6.522;2022-09-09T11:41:03;5.60;;;1.42;;
28762;SDS011;15918;51.270;6.522;2022-09-09T11:46:11;2.13;;;1.25;;
28762;SDS011;15918;51.270;6.522;2022-09-09T11:48:58;4.05;;;1.20;;
28762;SDS011;15918;51.270;6.522;2022-09-09T11:51:26;4.07;;;1.55;;
28762;SDS011;15918;51.270;6.522;2022-09-09T11:53:54;2.70;;;1.08;;
28762;SDS011;15918;51.270;6.522;2022-09-09T11:56:31;3.30;;;1.08;;
28762;SDS011;15918;51.270;6.522;2022-09-09T11:59:22;5.28;;;1.40;;
28762;SDS011;15918;51.270;6.522;2022-09-09T12:05:25;3.38;;;1.13;;
28762;SDS011;15918;51.270;6.522;2022-09-09T12:07:35;2.22;;;0.95;;
28762;SDS011;15918;51.270;6.522;2022-09-09T12:13:21;8.85;;;1.60;;
28762;SDS011;15918;51.270;6.522;2022-09-09T12:15:58;3.25;;;1.45;;
28762;SDS011;15918;51.270;6.522;2022-09-09T12:18:31;4.75;;;1.83;;
28762;SDS011;15918;51.270;6.522;2022-09-09T12:23:37;7.53;;;2.28;;
28762;SDS011;15918;51.270;6.522;2022-09-09T12:29:11;3.80;;;1.13;;
28762;SDS011;15918;51.270;6.522;2022-09-09T12:31:41;3.85;;;1.45;;
28762;SDS011;15918;51.270;6.522;2022-09-09T12:34:24;3.33;;;1.50;;
28762;SDS011;15918;51.270;6.522;2022-09-09T12:37:06;7.10;;;2.22;;
28762;SDS011;15918;51.270;6.522;2022-09-09T12:39:44;4.45;;;1.60;;
28762;SDS011;15918;51.270;6.522;2022-09-09T12:42:18;6.63;;;2.03;;
28762;SDS011;15918;51.270;6.522;2022-09-09T12:44:52;4.90;;;1.42;;
28762;SDS011;15918;51.270;6.522;2022-09-09T12:47:37;4.45;;;1.40;;
28762;SDS011;15918;51.270;6.522;2022-09-09T12:50:19;4.80;;;1.75;;
28762;SDS011;15918;51.270;6.522;2022-09-09T12:52:47;4.75;;;1.80;;
28762;SDS011;15918;51.270;6.522;2022-09-09T12:55:18;4.82;;;1.60;;
28762;SDS011;15918;51.270;6.522;2022-09-09T12:57:50;4.27;;;1.53;;
28762;SDS011;15918;51.270;6.522;2022-09-09T13:00:18;5.13;;;1.55;;
28762;SDS011;15918;51.270;6.522;2022-09-09T13:02:49;5.63;;;1.42;;
28762;SDS011;15918;51.270;6.522;2022-09-09T13:05:18;6.03;;;1.98;;
28762;SDS011;15918;51.270;6.522;2022-09-09T13:07:45;6.35;;;2.13;;
28762;SDS011;15918;51.270;6.522;2022-09-09T13:10:12;5.78;;;1.83;;
28762;SDS011;15918;51.270;6.522;2022-09-09T13:12:40;4.28;;;1.67;;
28762;SDS011;15918;51.270;6.522;2022-09-09T13:15:11;7.15;;;1.67;;
28762;SDS011;15918;51.270;6.522;2022-09-09T13:17:48;6.28;;;1.70;;
28762;SDS011;15918;51.270;6.522;2022-09-09T13:20:17;6.05;;;1.65;;
28762;SDS011;15918;51.270;6.522;2022-09-09T13:22:44;3.35;;;1.83;;
28762;SDS011;15918;51.270;6.522;2022-09-09T13:27:37;4.32;;;1.27;;
28762;SDS011;15918;51.270;6.522;2022-09-09T13:30:21;6.20;;;2.03;;
28762;SDS011;15918;51.270;6.522;2022-09-09T13:35:34;3.97;;;1.63;;
28762;SDS011;15918;51.270;6.522;2022-09-09T13:38:12;3.83;;;1.40;;
28762;SDS011;15918;51.270;6.522;2022-09-09T13:40:39;3.03;;;1.30;;
28762;SDS011;15918;51.270;6.522;2022-09-09T13:43:05;4.30;;;1.50;;
28762;SDS011;15918;51.270;6.522;2022-09-09T13:45:52;4.28;;;1.40;;
28762;SDS011;15918;51.270;6.522;2022-09-09T13:48:19;5.55;;;1.40;;
28762;SDS011;15918;51.270;6.522;2022-09-09T13:50:53;5.43;;;1.98;;
28762;SDS011;15918;51.270;6.522;2022-09-09T13:53:22;4.68;;;1.75;;
28762;SDS011;15918;51.270;6.522;2022-09-09T13:55:47;4.38;;;1.70;;
28762;SDS011;15918;51.270;6.522;2022-09-09T13:58:14;4.85;;;1.60;;
28762;SDS011;15918;51.270;6.522;2022-09-09T14:00:41;5.22;;;1.65;;
28762;SDS011;15918;51.270;6.522;2022-09-09T14:03:08;2.78;;;1.35;;
28762;SDS011;15918;51.270;6.522;2022-09-09T14:05:35;5.13;;;1.58;;
28762;SDS011;15918;51.270;6.522;2022-09-09T14:08:03;3.08;;;1.38;;
28762;SDS011;15918;51.270;6.522;2022-09-09T14:10:30;3.13;;;1.55;;
28762;SDS011;15918;51.270;6.522;2022-09-09T14:13:01;2.72;;;1.48;;
28762;SDS011;15918;51.270;6.522;2022-09-09T14:15:27;5.32;;;1.45;;
28762;SDS011;15918;51.270;6.522;2022-09-09T14:17:54;6.97;;;1.75;;
28762;SDS011;15918;51.270;6.522;2022-09-09T14:20:19;5.68;;;1.40;;
28762;SDS011;15918;51.270;6.522;2022-09-09T14:22:45;4.15;;;1.13;;
28762;SDS011;15918;51.270;6.522;2022-09-09T14:25:11;2.80;;;0.90;;
28762;SDS011;15918;51.270;6.522;2022-09-09T14:27:40;3.45;;;1.10;;
28762;SDS011;15918;51.270;6.522;2022-09-09T14:30:07;1.75;;;0.90;;
28762;SDS011;15918;51.270;6.522;2022-09-09T14:32:33;2.05;;;0.90;;
28762;SDS011;15918;51.270;6.522;2022-09-09T14:34:59;4.30;;;1.00;;
28762;SDS011;15918;51.270;6.522;2022-09-09T14:37:24;2.28;;;0.68;;
28762;SDS011;15918;51.270;6.522;2022-09-09T14:39:51;2.70;;;0.93;;
28762;SDS011;15918;51.270;6.522;2022-09-09T14:42:17;3.47;;;1.15;;
28762;SDS011;15918;51.270;6.522;2022-09-09T14:44:43;4.88;;;1.25;;
28762;SDS011;15918;51.270;6.522;2022-09-09T14:47:08;3.55;;;0.90;;
28762;SDS011;15918;51.270;6.522;2022-09-09T14:49:34;3.53;;;1.00;;
28762;SDS011;15918;51.270;6.522;2022-09-09T14:52:00;1.98;;;0.80;;
28762;SDS011;15918;51.270;6.522;2022-09-09T14:54:26;3.13;;;1.17;;
28762;SDS011;15918;51.270;6.522;2022-09-09T14:56:53;2.25;;;0.77;;
28762;SDS011;15918;51.270;6.522;2022-09-09T14:59:18;2.15;;;0.75;;
28762;SDS011;15918;51.270;6.522;2022-09-09T15:01:44;1.20;;;0.43;;
28762;SDS011;15918;51.270;6.522;2022-09-09T15:04:10;2.15;;;0.60;;
28762;SDS011;15918;51.270;6.522;2022-09-09T15:06:37;3.30;;;0.90;;
28762;SDS011;15918;51.270;6.522;2022-09-09T15:09:04;2.20;;;0.80;;
28762;SDS011;15918;51.270;6.522;2022-09-09T15:11:31;2.05;;;0.80;;
28762;SDS011;15918;51.270;6.522;2022-09-09T15:14:02;2.58;;;0.75;;
28762;SDS011;15918;51.270;6.522;2022-09-09T15:16:29;1.80;;;0.70;;
28762;SDS011;15918;51.270;6.522;2022-09-09T15:18:56;0.95;;;0.40;;
28762;SDS011;15918;51.270;6.522;2022-09-09T15:21:23;1.35;;;0.68;;
28762;SDS011;15918;51.270;6.522;2022-09-09T15:23:51;1.20;;;0.57;;
28762;SDS011;15918;51.270;6.522;2022-09-09T15:26:17;0.90;;;0.50;;
28762;SDS011;15918;51.270;6.522;2022-09-09T15:28:44;1.10;;;0.60;;
28762;SDS011;15918;51.270;6.522;2022-09-09T15:31:16;2.28;;;0.60;;
28762;SDS011;15918;51.270;6.522;2022-09-09T15:33:47;1.73;;;0.70;;
28762;SDS011;15918;51.270;6.522;2022-09-09T15:36:18;1.50;;;0.90;;
28762;SDS011;15918;51.270;6.522;2022-09-09T15:38:45;2.85;;;0.73;;
28762;SDS011;15918;51.270;6.522;2022-09-09T15:41:11;1.65;;;0.75;;
28762;SDS011;15918;51.270;6.522;2022-09-09T15:43:37;1.17;;;0.52;;
28762;SDS011;15918;51.270;6.522;2022-09-09T15:51:44;1.17;;;0.60;;
28762;SDS011;15918;51.270;6.522;2022-09-09T15:54:12;1.67;;;1.02;;
28762;SDS011;15918;51.270;6.522;2022-09-09T15:56:43;0.85;;;0.50;;
28762;SDS011;15918;51.270;6.522;2022-09-09T15:59:10;2.55;;;0.95;;
28762;SDS011;15918;51.270;6.522;2022-09-09T16:01:36;4.18;;;1.08;;
28762;SDS011;15918;51.270;6.522;2022-09-09T16:04:04;2.95;;;0.95;;
28762;SDS011;15918;51.270;6.522;2022-09-09T16:06:31;3.42;;;1.00;;
28762;SDS011;15918;51.270;6.522;2022-09-09T16:08:58;0.85;;;0.50;;
28762;SDS011;15918;51.270;6.522;2022-09-09T16:11:27;2.17;;;1.00;;
28762;SDS011;15918;51.270;6.522;2022-09-09T16:13:54;2.28;;;0.90;;
28762;SDS011;15918;51.270;6.522;2022-09-09T16:16:22;2.22;;;0.82;;
28762;SDS011;15918;51.270;6.522;2022-09-09T16:18:51;2.65;;;0.98;;
28762;SDS011;15918;51.270;6.522;2022-09-09T16:21:22;4.93;;;1.13;;
28762;SDS011;15918;51.270;6.522;2022-09-09T16:23:50;3.47;;;1.00;;
28762;SDS011;15918;51.270;6.522;2022-09-09T16:26:18;3.65;;;1.17;;
28762;SDS011;15918;51.270;6.522;2022-09-09T16:28:44;1.42;;;0.82;;
28762;SDS011;15918;51.270;6.522;2022-09-09T16:31:13;3.15;;;1.45;;
28762;SDS011;15918;51.270;6.522;2022-09-09T16:33:43;2.20;;;1.13;;
28762;SDS011;15918;51.270;6.522;2022-09-09T16:36:13;2.17;;;0.98;;
28762;SDS011;15918;51.270;6.522;2022-09-09T16:38:41;6.13;;;1.23;;
28762;SDS011;15918;51.270;6.522;2022-09-09T16:41:10;2.22;;;1.02;;
28762;SDS011;15918;51.270;6.522;2022-09-09T16:43:38;2.70;;;1.17;;
28762;SDS011;15918;51.270;6.522;2022-09-09T16:46:15;2.90;;;1.30;;
28762;SDS011;15918;51.270;6.522;2022-09-09T16:48:42;4.45;;;1.33;;
28762;SDS011;15918;51.270;6.522;2022-09-09T16:51:11;3.03;;;1.30;;
28762;SDS011;15918;51.270;6.522;2022-09-09T16:53:42;3.65;;;1.45;;
28762;SDS011;15918;51.270;6.522;2022-09-09T16:56:15;2.45;;;1.20;;
28762;SDS011;15918;51.270;6.522;2022-09-09T16:58:44;3.33;;;1.50;;
28762;SDS011;15918;51.270;6.522;2022-09-09T17:01:20;3.72;;;1.40;;
28762;SDS011;15918;51.270;6.522;2022-09-09T17:03:47;4.60;;;1.27;;
28762;SDS011;15918;51.270;6.522;2022-09-09T17:06:16;5.55;;;1.40;;
28762;SDS011;15918;51.270;6.522;2022-09-09T17:08:42;2.05;;;1.35;;
28762;SDS011;15918;51.270;6.522;2022-09-09T17:11:15;3.65;;;1.55;;
28762;SDS011;15918;51.270;6.522;2022-09-09T17:13:42;3.13;;;1.23;;
28762;SDS011;15918;51.270;6.522;2022-09-09T17:16:08;4.20;;;1.50;;
28762;SDS011;15918;51.270;6.522;2022-09-09T17:18:35;2.58;;;1.70;;